Boyntonville, New York
Current Conditions -  °F | °C
As of 8:54 AM on Monday 20 Oct 2014 (Local Time) from KDDH Reporting Station
Few Clouds Few Clouds  
Wind Chill: 34°   Ceiling: Unl
Heat Index: 34°   Visibility: 10mi
Dew Point: 29°   Wind: 0mph
Humidity: 82%   Direction: NA
Pressure: 30.03"   Gusts: NA
Location:  42.8782°N, 73.3625°W
Report Text: KDDH 201254Z AUTO 00000KT 10SM FEW110 01/M02 A3003 RMK AO2 SLP176 T00111017
Loading
Personal Weather Stations






























Interactive Weather Map
Tropical Storm Tracking
New forecast layout! Learn more

10-Day Weather Forecast

Advertisements
Track Severe Weather on mobile